Time;durP1;ratioP1;P1;durP2;ratioP2;P2;SDS_P1;SDS_P2;PMS_P1;PMS_P2;Temp;Humidity;BMP_temperature;BMP_pressure;BME280_temperature;BME280_humidity;BME280_pressure;Samples;Min_cycle;Max_cycle;Signal;HPM_P1;HPM_P2
2022/09/10 00:01:47;;;;;;;11.20;9.13;;;27.80;63.80;;;;;;5109925;28;20035;-83
2022/09/10 00:04:14;;;;;;;9.95;8.48;;;27.80;64.00;;;;;;5109562;28;20012;-83
2022/09/10 00:06:42;;;;;;;11.77;8.18;;;27.70;65.40;;;;;;5092254;28;20482;-83
2022/09/10 00:09:09;;;;;;;11.95;8.55;;;27.60;65.00;;;;;;5094619;28;20081;-82
2022/09/10 00:11:37;;;;;;;10.77;8.85;;;27.50;65.90;;;;;;5089521;28;20023;-83
2022/09/10 00:14:06;;;;;;;10.57;8.38;;;27.50;65.80;;;;;;5086881;28;20020;-81
2022/09/10 00:16:32;;;;;;;13.48;9.52;;;27.50;65.90;;;;;;5073849;28;20024;-88
2022/09/10 00:18:59;;;;;;;14.68;10.20;;;27.60;66.20;;;;;;5068812;28;20077;-86
2022/09/10 00:21:26;;;;;;;10.90;9.43;;;27.70;66.10;;;;;;5077738;28;20032;-84
2022/09/10 00:23:51;;;;;;;13.95;10.02;;;27.80;65.90;;;;;;5078569;28;20379;-83
2022/09/10 00:26:23;;;;;;;15.63;11.93;;;28.00;65.60;;;;;;5095773;28;20482;-83
2022/09/10 00:28:51;;;;;;;13.77;10.77;;;28.10;65.30;;;;;;5096167;28;20016;-85
2022/09/10 00:31:18;;;;;;;12.93;10.20;;;28.20;65.20;;;;;;5095880;28;20024;-84
2022/09/10 00:33:44;;;;;;;16.67;11.90;;;28.30;65.20;;;;;;5059476;28;20384;-82
2022/09/10 00:36:24;;;;;;;14.38;10.50;;;28.30;65.10;;;;;;5095955;28;20505;-81
2022/09/10 00:38:52;;;;;;;15.88;11.45;;;28.30;65.10;;;;;;5095607;28;20020;-82
2022/09/10 00:41:19;;;;;;;13.73;11.32;;;28.20;65.20;;;;;;5089175;28;20043;-84
2022/09/10 00:43:59;;;;;;;13.52;11.27;;;28.10;65.40;;;;;;5085972;28;20020;-85
2022/09/10 00:46:34;;;;;;;11.70;10.25;;;28.00;65.70;;;;;;5074039;28;20043;-83
2022/09/10 00:49:02;;;;;;;13.48;11.45;;;28.00;65.90;;;;;;5061763;28;20102;-84
2022/09/10 00:51:33;;;;;;;13.00;11.48;;;28.00;65.60;;;;;;5095380;28;20421;-83
2022/09/10 00:54:00;;;;;;;14.55;11.02;;;28.10;65.60;;;;;;5077494;28;20035;-82
2022/09/10 00:56:27;;;;;;;11.68;10.43;;;28.10;65.40;;;;;;5095412;28;20028;-83
2022/09/10 00:58:53;;;;;;;13.43;9.38;;;28.10;65.60;;;;;;5066088;28;20033;-83
2022/09/10 01:01:19;;;;;;;14.55;10.13;;;28.10;65.30;;;;;;5089912;28;20101;-83
2022/09/10 01:03:46;;;;;;;12.23;9.00;;;28.00;65.20;;;;;;5077100;28;20025;-86
2022/09/10 01:06:12;;;;;;;10.35;8.90;;;28.00;65.00;;;;;;5083501;28;20032;-82
2022/09/10 01:08:37;;;;;;;9.10;7.50;;;27.90;64.90;;;;;;5077530;28;20024;-90
2022/09/10 01:11:13;;;;;;;12.63;7.03;;;27.80;64.20;;;;;;5077993;28;20047;-90
2022/09/10 01:13:48;;;;;;;8.98;6.00;;;27.70;63.90;;;;;;5077846;28;20433;-84
2022/09/10 01:16:26;;;;;;;8.38;5.78;;;27.70;62.90;;;;;;5076560;28;20557;-84
2022/09/10 01:19:24;;;;;;;8.35;5.50;;;27.60;62.40;;;;;;5095294;28;20059;-83
2022/09/10 01:22:15;;;;;;;6.80;5.60;;;27.60;62.70;;;;;;5076875;28;20040;-82
2022/09/10 01:25:21;;;;;;;8.77;5.40;;;27.60;61.90;;;;;;5071239;28;20371;-83
2022/09/10 01:27:54;;;;;;;6.10;4.72;;;27.60;61.30;;;;;;5083313;28;20036;-82
2022/09/10 01:30:42;;;;;;;5.43;4.28;;;27.50;61.40;;;;;;5093493;28;20043;-87
2022/09/10 01:33:34;;;;;;;8.50;4.57;;;27.40;60.80;;;;;;5077071;28;20478;-83
2022/09/10 01:36:06;;;;;;;7.38;4.57;;;27.40;60.90;;;;;;5095098;28;20486;-83
2022/09/10 01:38:34;;;;;;;7.35;4.18;;;27.40;60.50;;;;;;5076475;28;20035;-82
2022/09/10 01:41:00;;;;;;;9.82;3.85;;;27.60;60.30;;;;;;5076769;28;20032;-82
2022/09/10 01:43:27;;;;;;;8.55;4.40;;;27.60;59.90;;;;;;5093482;28;20035;-82
2022/09/10 01:46:18;;;;;;;6.78;3.85;;;27.50;60.10;;;;;;5065812;28;20475;-82
2022/09/10 01:49:08;;;;;;;5.85;3.90;;;27.40;60.00;;;;;;5081224;28;20024;-81
2022/09/10 01:51:53;;;;;;;5.57;3.70;;;27.20;60.00;;;;;;5092531;28;20357;-81
2022/09/10 01:54:36;;;;;;;6.47;3.95;;;27.20;59.70;;;;;;5092976;28;20025;-79
2022/09/10 01:57:29;;;;;;;6.85;3.95;;;27.20;59.90;;;;;;5094003;28;20475;-80
2022/09/10 02:00:10;;;;;;;5.40;3.50;;;27.30;59.70;;;;;;5080520;28;20047;-83
2022/09/10 02:02:51;;;;;;;;;;;27.40;59.80;;;;;;5073129;28;20060;-79
2022/09/10 02:05:21;;;;;;;8.18;3.30;;;27.30;59.40;;;;;;5075325;28;19930;-85
2022/09/10 02:07:51;;;;;;;6.45;4.15;;;27.10;59.80;;;;;;5075583;28;20020;-79
2022/09/10 02:10:16;;;;;;;7.82;3.67;;;26.80;60.20;;;;;;5075524;28;20032;-81
2022/09/10 02:12:43;;;;;;;5.57;3.47;;;26.80;60.30;;;;;;5074698;28;20031;-78
2022/09/10 02:15:10;;;;;;;6.32;3.20;;;26.80;60.20;;;;;;5093353;28;20069;-82
2022/09/10 02:17:38;;;;;;;5.90;3.33;;;26.50;60.40;;;;;;5075589;28;20024;-81
2022/09/10 02:20:14;;;;;;;5.72;3.33;;;26.50;60.80;;;;;;5074372;28;20392;-85
2022/09/10 02:22:46;;;;;;;5.55;3.50;;;26.50;60.60;;;;;;5075313;28;20032;-80
2022/09/10 02:25:12;;;;;;;7.55;3.53;;;26.80;60.40;;;;;;5093645;28;20016;-85
2022/09/10 02:27:38;;;;;;;6.60;3.10;;;26.90;60.10;;;;;;5093722;28;20031;-78
2022/09/10 02:30:05;;;;;;;9.68;3.60;;;26.70;60.00;;;;;;5068987;28;20021;-84
2022/09/10 02:32:31;;;;;;;7.72;3.63;;;26.50;60.30;;;;;;5055256;28;20115;-82
2022/09/10 02:34:57;;;;;;;6.13;3.30;;;26.50;60.30;;;;;;5060221;28;20436;-81
2022/09/10 02:37:23;;;;;;;7.00;3.53;;;26.30;60.70;;;;;;5070240;28;20023;-86
2022/09/10 02:39:49;;;;;;;4.18;3.10;;;26.10;61.20;;;;;;5092827;28;20084;-78
2022/09/10 02:42:15;;;;;;;5.43;3.00;;;25.90;61.30;;;;;;5066770;28;20044;-79
2022/09/10 02:44:41;;;;;;;8.07;3.10;;;25.90;61.70;;;;;;5055425;28;20020;-79
2022/09/10 02:47:07;;;;;;;5.85;3.55;;;26.00;61.50;;;;;;5068718;28;20058;-80
2022/09/10 02:49:33;;;;;;;5.25;3.30;;;26.00;61.60;;;;;;5074938;28;20409;-85
2022/09/10 02:52:01;;;;;;;6.15;3.25;;;25.90;61.50;;;;;;5075958;28;20111;-80
2022/09/10 02:54:27;;;;;;;4.82;3.00;;;26.00;61.60;;;;;;5093047;28;20057;-82
2022/09/10 02:56:53;;;;;;;5.25;2.95;;;26.00;61.30;;;;;;5092505;28;20047;-81
2022/09/10 02:59:19;;;;;;;5.95;3.13;;;26.10;61.40;;;;;;5074030;28;20020;-83
2022/09/10 03:01:45;;;;;;;5.40;3.03;;;25.80;61.50;;;;;;5057786;28;20055;-86
2022/09/10 03:04:11;;;;;;;6.47;3.17;;;25.70;62.00;;;;;;5077025;28;20099;-82
2022/09/10 03:06:37;;;;;;;4.82;2.95;;;25.80;61.20;;;;;;5060050;28;20028;-86
2022/09/10 03:09:02;;;;;;;5.05;3.08;;;25.90;61.00;;;;;;5084891;28;20028;-88
2022/09/10 03:11:28;;;;;;;6.60;3.00;;;26.10;61.10;;;;;;5071765;28;20501;-81
2022/09/10 03:13:54;;;;;;;4.82;2.53;;;26.20;60.50;;;;;;5088047;28;20028;-79
2022/09/10 03:16:20;;;;;;;3.83;2.63;;;25.90;61.20;;;;;;5055695;28;20523;-80
2022/09/10 03:18:46;;;;;;;5.88;2.85;;;25.90;60.80;;;;;;5070596;28;20082;-80
2022/09/10 03:21:15;;;;;;;5.30;2.83;;;26.00;60.80;;;;;;5082371;28;20551;-81
2022/09/10 03:23:43;;;;;;;5.38;2.55;;;25.80;60.80;;;;;;5092814;28;20089;-79
2022/09/10 03:26:09;;;;;;;3.35;2.13;;;25.90;60.70;;;;;;5075295;28;20109;-80
2022/09/10 03:28:36;;;;;;;6.10;2.50;;;25.90;60.70;;;;;;5074973;28;20409;-83
2022/09/10 03:31:06;;;;;;;3.90;2.40;;;25.80;60.80;;;;;;5075731;28;20013;-82
2022/09/10 03:33:32;;;;;;;4.18;2.45;;;25.70;60.50;;;;;;5061223;28;20028;-79
2022/09/10 03:35:58;;;;;;;5.78;2.25;;;25.60;60.60;;;;;;5091921;28;20127;-82
2022/09/10 03:38:24;;;;;;;6.68;2.35;;;25.30;61.00;;;;;;5064130;28;20119;-81
2022/09/10 03:40:51;;;;;;;5.40;1.92;;;25.40;60.90;;;;;;5074621;28;20078;-78
2022/09/10 03:43:18;;;;;;;5.93;1.90;;;25.50;60.60;;;;;;5056598;28;20433;-84
2022/09/10 03:45:44;;;;;;;4.07;1.90;;;25.40;61.10;;;;;;5074851;28;20016;-80
2022/09/10 03:48:10;;;;;;;3.50;1.90;;;25.50;60.90;;;;;;5094625;28;20058;-85
2022/09/10 03:50:36;;;;;;;5.22;1.88;;;25.40;60.80;;;;;;5096491;28;20024;-82
2022/09/10 03:53:02;;;;;;;4.22;2.10;;;25.40;60.50;;;;;;5078145;28;20032;-85
2022/09/10 03:55:29;;;;;;;3.33;1.60;;;25.30;60.40;;;;;;5078101;28;20042;-80
2022/09/10 03:57:55;;;;;;;2.70;1.70;;;25.30;60.40;;;;;;5095919;28;20024;-84
2022/09/10 04:00:21;;;;;;;41.42;38.60;;;25.20;60.60;;;;;;5095860;28;20474;-84
2022/09/10 04:02:47;;;;;;;5.45;1.80;;;25.30;60.70;;;;;;5066615;28;20105;-78
2022/09/10 04:05:13;;;;;;;5.10;1.88;;;25.40;60.40;;;;;;5096478;28;20031;-79
2022/09/10 04:07:38;;;;;;;3.10;1.73;;;25.40;60.30;;;;;;5077180;28;20123;-81
2022/09/10 04:10:05;;;;;;;3.92;1.70;;;25.40;60.40;;;;;;5088397;28;20069;-79
2022/09/10 04:12:31;;;;;;;4.35;1.77;;;25.60;60.30;;;;;;5077021;28;20077;-79
2022/09/10 04:14:57;;;;;;;3.50;1.90;;;25.70;59.60;;;;;;5090218;28;20016;-83
2022/09/10 04:17:24;;;;;;;5.32;1.90;;;25.90;59.10;;;;;;5078233;28;20127;-83
2022/09/10 04:19:49;;;;;;;4.45;1.98;;;25.90;59.20;;;;;;5072580;28;20112;-80
2022/09/10 04:22:15;;;;;;;3.03;1.63;;;25.70;59.30;;;;;;5084501;28;20107;-83
2022/09/10 04:24:41;;;;;;;3.20;1.80;;;25.50;59.70;;;;;;5070954;28;20021;-84
2022/09/10 04:27:07;;;;;;;3.22;1.70;;;25.50;60.30;;;;;;5077089;28;20479;-81
2022/09/10 04:29:32;;;;;;;2.83;1.77;;;25.50;60.00;;;;;;5066725;28;20064;-79
2022/09/10 04:31:58;;;;;;;4.97;1.90;;;25.50;60.30;;;;;;5095969;28;20114;-82
2022/09/10 04:34:24;;;;;;;2.90;1.70;;;25.50;59.80;;;;;;5082109;28;20025;-84
2022/09/10 04:36:52;;;;;;;3.17;1.60;;;25.10;60.00;;;;;;5077075;28;20023;-77
2022/09/10 04:39:18;;;;;;;3.72;1.70;;;24.90;60.80;;;;;;5072420;28;20107;-82
2022/09/10 04:41:43;;;;;;;3.67;2.20;;;25.10;60.90;;;;;;5058813;28;20386;-80
2022/09/10 04:44:09;;;;;;;6.03;1.70;;;24.90;60.40;;;;;;5075345;28;20024;-82
2022/09/10 04:46:35;;;;;;;3.22;1.70;;;24.90;60.80;;;;;;5076494;28;20447;-81
2022/09/10 04:49:01;;;;;;;4.35;1.83;;;24.70;60.70;;;;;;5060805;28;20356;-81
2022/09/10 04:51:26;;;;;;;5.15;1.80;;;24.70;61.10;;;;;;5069260;28;20467;-80
2022/09/10 04:53:52;;;;;;;4.13;1.73;;;24.50;61.50;;;;;;5085290;28;20091;-78
2022/09/10 04:56:19;;;;;;;5.85;1.60;;;24.40;61.70;;;;;;5064989;28;20073;-81
2022/09/10 04:58:45;;;;;;;2.97;1.60;;;24.50;61.70;;;;;;5060588;28;20046;-80
2022/09/10 05:01:10;;;;;;;3.83;1.70;;;24.80;61.20;;;;;;5085856;28;20052;-79
2022/09/10 05:03:37;;;;;;;3.25;1.65;;;25.00;60.60;;;;;;5067405;28;20024;-84
2022/09/10 05:06:04;;;;;;;2.72;1.60;;;25.10;60.40;;;;;;5086560;28;20020;-87
2022/09/10 05:08:30;;;;;;;4.63;1.85;;;25.00;60.30;;;;;;5077181;28;20016;-79
2022/09/10 05:10:59;;;;;;;3.67;1.60;;;24.90;60.60;;;;;;5095492;28;20048;-84
2022/09/10 05:13:25;;;;;;;3.80;1.70;;;24.90;60.50;;;;;;5077278;28;20028;-80
2022/09/10 05:15:50;;;;;;;2.97;1.60;;;24.90;60.90;;;;;;5076809;28;20028;-84
2022/09/10 05:18:16;;;;;;;2.90;1.58;;;25.00;60.30;;;;;;5076546;28;20035;-84
2022/09/10 05:20:45;;;;;;;4.90;1.73;;;25.00;60.50;;;;;;5095326;28;20024;-81
2022/09/10 05:23:11;;;;;;;2.85;1.50;;;24.80;60.40;;;;;;5094759;28;20051;-87
2022/09/10 05:25:37;;;;;;;2.92;1.60;;;24.80;60.70;;;;;;5076257;28;20024;-83
2022/09/10 05:28:04;;;;;;;2.67;1.60;;;24.80;61.00;;;;;;5076703;28;20387;-79
2022/09/10 05:30:31;;;;;;;2.80;1.63;;;24.80;60.70;;;;;;5076667;28;20016;-82
2022/09/10 05:32:58;;;;;;;2.60;1.50;;;25.00;60.60;;;;;;4370713;28;10000687;-79
2022/09/10 05:35:24;;;;;;;3.08;1.75;;;25.20;60.10;;;;;;5074873;28;20020;-83
2022/09/10 05:37:55;;;;;;;2.75;1.60;;;25.20;59.90;;;;;;5074904;28;20058;-78
2022/09/10 05:40:21;;;;;;;3.47;1.70;;;25.10;60.50;;;;;;5073636;28;20090;-81
2022/09/10 05:42:47;;;;;;;2.67;1.70;;;25.10;59.70;;;;;;5093292;28;20391;-85
2022/09/10 05:45:13;;;;;;;5.45;1.60;;;25.10;60.30;;;;;;5074865;28;20042;-83
2022/09/10 05:47:39;;;;;;;3.80;1.63;;;25.10;60.20;;;;;;5074966;28;20487;-83
2022/09/10 05:50:06;;;;;;;2.42;1.52;;;25.30;60.50;;;;;;5092603;28;20426;-85
2022/09/10 05:52:31;;;;;;;3.05;1.67;;;25.30;59.90;;;;;;5092844;28;20077;-82
2022/09/10 05:54:58;;;;;;;3.63;1.70;;;25.70;59.80;;;;;;5092561;28;20020;-86
2022/09/10 05:57:24;;;;;;;2.75;1.58;;;25.90;59.20;;;;;;5074873;28;20031;-79
2022/09/10 05:59:51;;;;;;;3.08;1.52;;;26.10;59.30;;;;;;5073727;28;20020;-79
2022/09/10 06:02:18;;;;;;;3.10;1.70;;;26.00;58.90;;;;;;5074098;28;20051;-79
2022/09/10 06:04:53;;;;;;;3.80;1.73;;;25.70;59.20;;;;;;5056933;28;10000900;-86
2022/09/10 06:07:19;;;;;;;3.30;1.90;;;25.60;59.70;;;;;;5091733;28;20254;-80
2022/09/10 06:09:45;;;;;;;5.93;1.73;;;25.70;59.80;;;;;;5092479;28;20048;-78
2022/09/10 06:12:10;;;;;;;12.18;2.00;;;25.90;59.40;;;;;;5073767;28;20462;-80
2022/09/10 06:14:36;;;;;;;5.13;1.70;;;25.90;59.70;;;;;;5093922;28;20475;-81
2022/09/10 06:17:04;;;;;;;3.30;1.70;;;25.90;59.70;;;;;;5076577;28;20466;-84
2022/09/10 06:19:29;;;;;;;3.33;1.65;;;26.10;59.30;;;;;;5076246;28;20031;-85
2022/09/10 06:21:55;;;;;;;2.42;1.58;;;26.10;59.30;;;;;;5066952;28;20036;-89
2022/09/10 06:24:22;;;;;;;4.15;1.60;;;26.20;59.30;;;;;;5055827;28;20471;-79
2022/09/10 06:26:49;;;;;;;3.80;1.85;;;26.40;59.10;;;;;;5055569;28;20025;-85
2022/09/10 06:29:15;;;;;;;2.83;1.52;;;26.60;59.00;;;;;;5055820;28;20031;-81
2022/09/10 06:31:41;;;;;;;3.13;1.50;;;26.80;58.70;;;;;;5073819;28;20024;-85
2022/09/10 06:34:07;;;;;;;5.20;1.70;;;26.60;58.90;;;;;;5073806;28;20031;-85
2022/09/10 06:36:33;;;;;;;3.90;1.50;;;26.50;58.60;;;;;;5073289;28;20107;-83
2022/09/10 06:39:00;;;;;;;3.90;1.60;;;26.20;59.20;;;;;;5073302;28;20560;-81
2022/09/10 06:41:29;;;;;;;6.55;1.70;;;26.10;59.10;;;;;;5055501;28;20035;-79
2022/09/10 06:43:56;;;;;;;3.63;1.70;;;26.20;59.70;;;;;;5055378;28;20028;-84
2022/09/10 06:46:22;;;;;;;2.60;1.60;;;26.20;60.00;;;;;;5073228;28;20143;-83
2022/09/10 06:48:48;;;;;;;3.50;1.80;;;25.90;59.70;;;;;;5055297;28;20395;-81
2022/09/10 06:51:15;;;;;;;2.83;1.58;;;25.70;60.10;;;;;;5055092;28;20476;-80
2022/09/10 06:53:41;;;;;;;2.83;1.55;;;25.70;60.30;;;;;;5073204;28;20032;-80
2022/09/10 06:56:10;;;;;;;3.20;1.70;;;25.70;60.50;;;;;;5073674;28;20527;-89
2022/09/10 06:58:36;;;;;;;2.78;1.70;;;25.90;60.00;;;;;;5073813;28;20028;-90
2022/09/10 07:01:09;;;;;;;4.25;1.83;;;25.90;60.20;;;;;;5056061;28;20041;-81
2022/09/10 07:03:35;;;;;;;2.90;1.88;;;26.10;60.80;;;;;;5055476;28;20071;-90
2022/09/10 07:06:03;;;;;;;4.35;1.95;;;26.00;60.10;;;;;;5055185;28;20070;-83
2022/09/10 07:08:28;;;;;;;3.83;1.85;;;26.10;60.50;;;;;;5056352;28;20033;-92
2022/09/10 07:10:59;;;;;;;3.13;1.73;;;26.10;60.70;;;;;;5055843;28;20017;-84
2022/09/10 07:13:26;;;;;;;4.47;2.08;;;26.20;60.50;;;;;;5073478;28;20028;-84
2022/09/10 07:15:52;;;;;;;5.43;1.90;;;26.50;59.90;;;;;;5055742;28;20025;-86
2022/09/10 07:18:18;;;;;;;3.95;1.73;;;26.70;60.00;;;;;;5055722;28;20040;-81
2022/09/10 07:20:45;;;;;;;3.38;2.00;;;26.80;60.10;;;;;;5055542;28;20379;-84
2022/09/10 07:23:12;;;;;;;3.42;1.95;;;26.80;59.70;;;;;;5057568;28;20041;-87
2022/09/10 07:25:39;;;;;;;5.40;2.20;;;27.00;59.80;;;;;;5059847;28;20078;-83
2022/09/10 07:28:05;;;;;;;3.60;2.10;;;27.20;59.10;;;;;;5059656;28;20020;-83
2022/09/10 07:30:31;;;;;;;7.40;2.72;;;27.10;59.30;;;;;;5077837;28;20021;-90
2022/09/10 07:32:57;;;;;;;5.80;2.10;;;27.20;59.40;;;;;;5077614;28;20029;-79
2022/09/10 07:35:24;;;;;;;7.13;2.50;;;27.20;59.20;;;;;;5060127;28;20052;-86
2022/09/10 07:37:50;;;;;;;5.47;2.45;;;26.90;59.60;;;;;;5059437;28;20016;-78
2022/09/10 07:40:16;;;;;;;5.07;2.40;;;26.90;60.00;;;;;;5059216;28;20025;-93
2022/09/10 07:42:44;;;;;;;3.80;2.20;;;27.00;59.40;;;;;;5059567;28;20028;-87
2022/09/10 07:45:15;;;;;;;5.20;2.80;;;26.90;59.80;;;;;;5059499;28;20115;-82
2022/09/10 07:47:43;;;;;;;3.90;2.70;;;26.90;59.50;;;;;;5059714;28;20579;-90
2022/09/10 07:50:09;;;;;;;5.50;3.00;;;26.90;59.50;;;;;;5077121;28;20031;-82
2022/09/10 07:52:35;;;;;;;3.92;2.50;;;26.80;59.80;;;;;;5077094;28;20058;-83
2022/09/10 07:55:01;;;;;;;5.68;3.08;;;26.90;59.90;;;;;;5059196;28;20124;-85
2022/09/10 07:57:28;;;;;;;7.03;3.78;;;27.00;60.30;;;;;;5077114;28;20091;-85
2022/09/10 07:59:54;;;;;;;4.68;3.05;;;26.90;60.00;;;;;;5059292;28;20349;-86
2022/09/10 08:02:20;;;;;;;6.82;2.70;;;26.60;60.20;;;;;;5058720;28;20051;-89
2022/09/10 08:04:46;;;;;;;4.15;2.75;;;26.50;60.90;;;;;;4720077;28;9999886;-81
2022/09/10 08:07:12;;;;;;;4.22;2.85;;;26.50;60.50;;;;;;5078940;28;20115;-93
2022/09/10 08:09:38;;;;;;;6.18;2.70;;;26.50;60.00;;;;;;5078733;28;20031;-89
2022/09/10 08:12:06;;;;;;;4.13;2.72;;;26.40;61.50;;;;;;5078734;28;20097;-87
2022/09/10 08:14:32;;;;;;;5.07;2.58;;;26.50;61.20;;;;;;5078741;28;20061;-89
2022/09/10 08:16:58;;;;;;;4.25;2.55;;;26.60;60.80;;;;;;5078982;28;20032;-83
2022/09/10 08:19:23;;;;;;;4.45;2.67;;;26.90;60.70;;;;;;5096845;28;20027;-82
2022/09/10 08:21:52;;;;;;;4.32;2.85;;;26.90;60.50;;;;;;5078669;28;20036;-82
2022/09/10 08:24:17;;;;;;;6.70;2.67;;;27.10;60.60;;;;;;5097079;28;20066;-81
2022/09/10 08:26:43;;;;;;;3.60;2.55;;;27.30;59.30;;;;;;5078931;28;20024;-85
2022/09/10 08:29:09;;;;;;;4.95;2.60;;;27.50;59.40;;;;;;5096151;28;20028;-81
2022/09/10 08:31:35;;;;;;;4.38;2.70;;;27.40;59.10;;;;;;5096564;28;20024;-83
2022/09/10 08:34:02;;;;;;;4.38;2.72;;;27.40;59.60;;;;;;5096004;28;20028;-86
2022/09/10 08:36:28;;;;;;;4.00;2.60;;;27.60;59.80;;;;;;5078302;28;20115;-92
2022/09/10 08:38:53;;;;;;;3.50;2.40;;;27.80;59.10;;;;;;5096781;28;20099;-85
2022/09/10 08:41:31;;;;;;;3.80;2.30;;;27.80;58.40;;;;;;5096495;28;20430;-85
2022/09/10 08:43:56;;;;;;;4.20;2.15;;;27.90;58.60;;;;;;5078671;28;20036;-82
2022/09/10 08:46:28;;;;;;;3.78;2.40;;;27.70;58.10;;;;;;5078247;28;20140;-92
2022/09/10 08:49:20;;;;;;;3.30;2.20;;;27.60;58.20;;;;;;5077930;28;20425;-83
2022/09/10 08:51:58;;;;;;;3.10;2.05;;;27.90;58.40;;;;;;5078698;28;20020;-89
2022/09/10 08:54:31;;;;;;;3.35;2.17;;;28.10;58.10;;;;;;5078226;28;20020;-88
2022/09/10 08:56:59;;;;;;;3.15;1.95;;;28.40;57.50;;;;;;5096140;28;20051;-86
2022/09/10 08:59:39;;;;;;;4.15;2.00;;;28.40;56.80;;;;;;5078068;28;20052;-87
2022/09/10 09:02:56;;;;;;;3.13;2.05;;;28.50;57.60;;;;;;5095960;28;20048;-83
2022/09/10 09:05:24;;;;;;;3.15;1.70;;;28.40;56.30;;;;;;4997256;28;20084;-82
2022/09/10 09:07:51;;;;;;;6.90;1.80;;;28.40;56.70;;;;;;5013609;28;20022;-85
2022/09/10 09:10:23;;;;;;;2.80;1.65;;;28.40;57.10;;;;;;5014837;28;20037;-90
2022/09/10 09:13:16;;;;;;;4.30;1.80;;;28.60;57.90;;;;;;5013793;28;20372;-82
2022/09/10 09:16:06;;;;;;;2.55;1.50;;;28.70;57.20;;;;;;5013728;28;20495;-84
2022/09/10 09:18:56;;;;;;;3.00;1.70;;;28.80;56.00;;;;;;5013789;28;20034;-87
2022/09/10 09:21:30;;;;;;;3.20;1.60;;;28.90;55.80;;;;;;5013607;28;20042;-81
2022/09/10 09:23:57;;;;;;;3.47;1.50;;;29.20;54.30;;;;;;5010138;28;20420;-84
2022/09/10 09:26:34;;;;;;;2.60;1.63;;;29.40;54.30;;;;;;5014039;28;20065;-80
2022/09/10 09:29:27;;;;;;;2.38;1.35;;;29.70;54.20;;;;;;5013466;28;20062;-87
2022/09/10 09:32:04;;;;;;;7.68;1.40;;;29.60;54.50;;;;;;4996868;28;20030;-82
2022/09/10 09:34:44;;;;;;;2.53;1.35;;;29.60;52.90;;;;;;5013662;28;20033;-89
2022/09/10 09:37:40;;;;;;;1.83;1.20;;;29.30;53.30;;;;;;5074748;28;20024;-90
2022/09/10 09:40:31;;;;;;;4.57;1.30;;;29.10;53.60;;;;;;5037031;28;20466;-85
2022/09/10 09:43:08;;;;;;;2.45;1.38;;;28.80;52.20;;;;;;4723807;28;10000556;-84
2022/09/10 09:45:48;;;;;;;2.33;1.30;;;29.10;53.50;;;;;;5054826;28;20029;-80
2022/09/10 09:48:19;;;;;;;4.88;2.60;;;29.30;52.40;;;;;;5073654;28;20448;-86
2022/09/10 09:50:47;;;;;;;2.83;1.30;;;29.50;51.50;;;;;;5073107;28;20036;-79
2022/09/10 09:53:27;;;;;;;3.08;1.35;;;29.40;51.70;;;;;;5055558;28;20078;-76
2022/09/10 09:55:58;;;;;;;3.80;1.40;;;29.40;51.70;;;;;;5082470;28;20020;-84
2022/09/10 09:58:25;;;;;;;3.72;1.30;;;29.10;52.30;;;;;;5064544;28;20091;-85
2022/09/10 10:01:02;;;;;;;2.83;1.40;;;29.10;52.50;;;;;;5063353;28;20024;-80
2022/09/10 10:03:51;;;;;;;2.95;1.30;;;29.50;52.50;;;;;;5074900;28;20035;-81
2022/09/10 10:06:21;;;;;;;3.15;1.40;;;29.70;51.70;;;;;;5055576;28;20024;-87
2022/09/10 10:08:55;;;;;;;2.53;1.30;;;29.50;51.20;;;;;;5054743;28;20032;-79
2022/09/10 10:11:22;;;;;;;2.05;1.30;;;29.40;51.30;;;;;;5055442;28;20573;-80
2022/09/10 10:13:50;;;;;;;3.28;1.20;;;29.20;50.70;;;;;;5055092;28;20028;-82
2022/09/10 10:16:25;;;;;;;2.10;1.20;;;28.90;50.20;;;;;;5055507;28;20111;-82
2022/09/10 10:18:52;;;;;;;3.65;1.30;;;29.10;51.00;;;;;;5053325;28;20020;-80
2022/09/10 10:21:31;;;;;;;3.60;1.30;;;29.50;50.60;;;;;;5054412;28;20165;-82
2022/09/10 10:23:57;;;;;;;2.63;1.23;;;29.80;49.90;;;;;;5072322;28;20024;-84
2022/09/10 10:26:27;;;;;;;3.15;1.30;;;30.00;50.20;;;;;;5054949;28;20070;-85
2022/09/10 10:29:05;;;;;;;2.10;1.33;;;30.00;50.40;;;;;;5054828;28;20072;-85
2022/09/10 10:31:39;;;;;;;1.92;1.20;;;30.10;49.70;;;;;;5056038;28;20474;-80
2022/09/10 10:34:13;;;;;;;4.18;1.05;;;30.30;49.50;;;;;;5068750;28;20108;-85
2022/09/10 10:36:39;;;;;;;2.53;1.15;;;30.50;48.20;;;;;;5055648;28;20031;-79
2022/09/10 10:39:23;;;;;;;3.30;1.30;;;30.60;48.60;;;;;;5073886;28;20401;-80
2022/09/10 10:42:04;;;;;;;1.77;1.10;;;30.40;49.80;;;;;;5056173;28;20025;-83
2022/09/10 10:45:10;;;;;;;2.80;1.27;;;30.40;49.70;;;;;;5055785;28;20036;-84
2022/09/10 10:48:03;;;;;;;2.78;1.10;;;30.40;49.40;;;;;;5055550;28;20467;-77
2022/09/10 10:50:48;;;;;;;2.55;1.10;;;30.30;49.80;;;;;;5055934;28;20063;-86
2022/09/10 10:53:25;;;;;;;2.67;1.10;;;30.30;49.40;;;;;;5055506;28;20486;-86
2022/09/10 10:56:25;;;;;;;2.70;1.20;;;30.70;49.40;;;;;;5054920;28;20021;-81
2022/09/10 10:59:08;;;;;;;2.30;1.30;;;30.60;48.60;;;;;;5073451;28;20025;-85
2022/09/10 11:02:02;;;;;;;3.60;1.27;;;30.60;48.50;;;;;;5072754;28;20044;-85
2022/09/10 11:04:40;;;;;;;1.95;1.10;;;30.30;48.80;;;;;;5045235;28;20123;-82
2022/09/10 11:07:28;;;;;;;1.42;1.00;;;29.90;49.80;;;;;;5055182;28;20474;-80
2022/09/10 11:10:15;;;;;;;1.65;1.08;;;30.10;48.70;;;;;;5055552;28;20114;-92
2022/09/10 11:12:53;;;;;;;2.92;1.20;;;30.00;48.60;;;;;;5055089;28;20074;-85
2022/09/10 11:15:33;;;;;;;2.65;1.10;;;30.30;49.20;;;;;;5055338;28;20067;-80
2022/09/10 11:18:18;;;;;;;;;;;30.60;49.30;;;;;;5074178;28;20017;-79
2022/09/10 11:20:59;;;;;;;2.20;1.30;;;30.70;48.30;;;;;;5070657;28;19908;-83
2022/09/10 11:23:46;;;;;;;1.85;1.20;;;30.70;48.90;;;;;;5073291;28;20061;-88
2022/09/10 11:26:14;;;;;;;1.45;1.05;;;30.40;48.40;;;;;;5054746;28;20021;-79
2022/09/10 11:28:55;;;;;;;2.22;1.20;;;30.40;49.00;;;;;;5054700;28;20033;-89
2022/09/10 11:31:29;;;;;;;1.98;1.20;;;30.30;48.40;;;;;;5072838;28;20040;-82
2022/09/10 11:34:03;;;;;;;2.30;1.20;;;30.30;49.30;;;;;;5073030;28;20021;-83
2022/09/10 11:36:38;;;;;;;1.67;1.08;;;30.50;49.30;;;;;;5073236;28;20035;-86
2022/09/10 11:39:13;;;;;;;15.45;1.90;;;30.50;48.60;;;;;;5055113;28;20052;-81
2022/09/10 11:41:41;;;;;;;3.28;1.20;;;30.60;50.00;;;;;;5054634;28;20037;-87
2022/09/10 11:44:45;;;;;;;3.05;1.63;;;30.90;49.20;;;;;;5055098;28;20032;-81
2022/09/10 11:47:36;;;;;;;2.20;1.10;;;30.70;48.70;;;;;;5055122;28;20028;-85
2022/09/10 11:50:16;;;;;;;1.50;1.10;;;30.30;48.90;;;;;;5055057;28;20021;-85
2022/09/10 11:52:42;;;;;;;3.15;1.20;;;29.90;49.30;;;;;;5073115;28;20028;-81
2022/09/10 11:55:14;;;;;;;4.60;1.20;;;29.80;49.60;;;;;;5072832;28;20386;-84
2022/09/10 11:57:47;;;;;;;2.28;1.10;;;29.70;49.00;;;;;;5054687;28;20074;-81
2022/09/10 12:00:17;;;;;;;2.50;1.40;;;29.90;49.50;;;;;;5055259;28;20031;-84
2022/09/10 12:03:01;;;;;;;3.80;1.30;;;30.30;49.70;;;;;;5054663;28;20048;-83
2022/09/10 12:05:59;;;;;;;4.10;1.40;;;30.20;49.10;;;;;;4357094;28;10021428;-86
2022/09/10 12:08:34;;;;;;;3.22;1.25;;;30.20;49.80;;;;;;5074392;28;20081;-85
2022/09/10 12:11:24;;;;;;;5.47;1.15;;;30.20;49.90;;;;;;5077116;28;20054;-83
2022/09/10 12:13:51;;;;;;;2.00;1.13;;;30.40;49.30;;;;;;5077369;28;20032;-80
2022/09/10 12:16:49;;;;;;;1.90;1.10;;;30.60;49.10;;;;;;5094909;28;20031;-81
2022/09/10 12:19:36;;;;;;;2.50;1.15;;;30.90;49.10;;;;;;4996812;28;20148;-79
2022/09/10 12:22:19;;;;;;;2.35;1.20;;;30.90;48.60;;;;;;5013801;28;20054;-84
2022/09/10 12:24:55;;;;;;;2.28;1.15;;;30.90;48.90;;;;;;5013032;28;20140;-88
2022/09/10 12:27:42;;;;;;;3.40;1.20;;;30.60;48.60;;;;;;4996913;28;20120;-83
2022/09/10 12:30:46;;;;;;;3.00;1.30;;;30.40;48.80;;;;;;4996509;28;20041;-88
2022/09/10 12:33:12;;;;;;;1.85;1.10;;;30.00;48.40;;;;;;4996030;28;20121;-81
2022/09/10 12:35:44;;;;;;;4.47;1.50;;;29.90;49.00;;;;;;4995625;28;20029;-91
2022/09/10 12:38:44;;;;;;;2.92;1.23;;;29.70;49.20;;;;;;4995739;28;20761;-83
2022/09/10 12:41:15;;;;;;;3.83;1.20;;;29.80;49.30;;;;;;5011478;28;20040;-90
2022/09/10 12:43:42;;;;;;;2.40;1.30;;;29.70;48.50;;;;;;5013432;28;20049;-86
2022/09/10 12:46:11;;;;;;;2.45;1.50;;;29.50;49.30;;;;;;5012553;28;20057;-82
2022/09/10 12:48:54;;;;;;;4.43;1.20;;;29.50;49.50;;;;;;5013621;28;20026;-82
2022/09/10 12:51:45;;;;;;;3.60;1.20;;;29.60;49.40;;;;;;4996897;28;20189;-83
2022/09/10 12:54:40;;;;;;;3.92;1.38;;;29.60;48.60;;;;;;5014122;28;20029;-91
2022/09/10 12:57:27;;;;;;;7.07;3.70;;;29.50;49.00;;;;;;4735757;28;10000233;-84
2022/09/10 13:00:18;;;;;;;5.15;1.60;;;29.30;48.80;;;;;;5076086;28;20269;-87
2022/09/10 13:03:03;;;;;;;2.72;1.40;;;29.40;49.80;;;;;;5095024;28;20059;-92
2022/09/10 13:05:46;;;;;;;3.88;1.50;;;29.60;49.80;;;;;;5076984;28;20050;-87
2022/09/10 13:08:46;;;;;;;5.43;1.50;;;29.50;49.80;;;;;;5094690;28;20016;-87
2022/09/10 13:11:55;;;;;;;2.97;1.30;;;29.70;50.00;;;;;;4976077;28;20042;-85